Pelsor, Arkansas
Current Conditions -  °F | °C
As of 2:53 AM on Friday 28 Nov 2014 (Local Time) from KRUE Reporting Station
Clear Clear  
Wind Chill:   Ceiling: Unl
Heat Index:   Visibility: 10mi
Dew Point: -2°   Wind: 3mph
Humidity: 79%   Direction: NA
Pressure: 30.35"   Gusts: NA
Location:  35.7°N, 93.08°W
Report Text: KRUE 280853Z AUTO VRB03KT 10SM CLR 01/M02 A3035 RMK AO2 SLP276 T00111022 56014
Loading
Personal Weather Stations






























Interactive Weather Map New forecast layout! Learn more

10-Day Weather Forecast

Advertisements
Track Severe Weather on mobile